Alphen aan den Rijn, Netherlands
Current Conditions -  °F | °C
As of 9:55 PM on Thursday 20 Nov 2014 (Local Time) from EHAM Reporting Station
Overcast Overcast  
Wind Chill: 39°   Ceiling: 800
Heat Index: 45°   Visibility: 4mi
Dew Point: 41°   Wind: 10mph
Humidity: 87%   Direction: 110°ESE
Pressure: 30.3"   Gusts: NA
Location:  52.13°N, 4.66°E
Report Text: EHAM 202055Z 11009KT 6000 BKN008 OVC009 07/05 Q1026 NOSIG
Loading
Personal Weather Stations






























Interactive Weather Map New forecast layout! Learn more

10-Day Weather Forecast

Advertisements
Track Severe Weather on mobile